createdAt,value
2022-10-17T00:02:44.327Z,101625.44
2022-10-17T00:05:48.519Z,101622.34
2022-10-17T00:08:52.419Z,101617.19
2022-10-17T00:11:54.905Z,101612.72
2022-10-17T00:14:57.412Z,101618.28
2022-10-17T00:18:00.174Z,101631.38
2022-10-17T00:21:02.670Z,101648.63
2022-10-17T00:24:07.186Z,101643.97
2022-10-17T00:27:09.748Z,101632.00
2022-10-17T00:30:13.827Z,101638.09
2022-10-17T00:33:16.327Z,101652.84
2022-10-17T00:36:21.019Z,101650.78
2022-10-17T00:39:24.863Z,101647.16
2022-10-17T00:42:28.656Z,101652.41
2022-10-17T00:45:32.455Z,101656.56
2022-10-17T00:48:34.944Z,101645.66
2022-10-17T00:51:41.756Z,101640.47
2022-10-17T00:54:49.445Z,101633.41
2022-10-17T00:57:53.286Z,101642.06
2022-10-17T01:00:55.890Z,101635.56
2022-10-17T01:07:15.215Z,101640.28
2022-10-17T01:10:20.335Z,101647.91
2022-10-17T01:13:30.958Z,101649.63
2022-10-17T01:16:45.578Z,101646.09
2022-10-17T01:20:11.024Z,101646.00
2022-10-17T01:23:29.053Z,101654.66
2022-10-17T01:26:50.096Z,101655.47
2022-10-17T01:30:13.996Z,101651.59
2022-10-17T01:33:25.154Z,101652.88
2022-10-17T01:36:38.614Z,101642.06
2022-10-17T01:39:45.573Z,101637.59
2022-10-17T01:42:58.810Z,101645.47
2022-10-17T01:46:11.176Z,101643.59
2022-10-17T01:49:18.298Z,101639.09
2022-10-17T01:52:24.154Z,101644.66
2022-10-17T01:55:32.558Z,101647.09
2022-10-17T01:58:41.350Z,101644.97
2022-10-17T02:01:45.968Z,101644.28
2022-10-17T02:04:52.585Z,101643.41
2022-10-17T02:07:55.096Z,101639.81
2022-10-17T02:11:03.446Z,101638.09
2022-10-17T02:14:19.309Z,101636.97
2022-10-17T02:17:35.020Z,101631.47
2022-10-17T02:20:46.713Z,101626.03
2022-10-17T02:23:54.954Z,101619.94
2022-10-17T02:27:05.047Z,101607.25
2022-10-17T02:30:12.549Z,101606.88
2022-10-17T02:33:20.737Z,101605.09
2022-10-17T02:36:31.611Z,101607.41
2022-10-17T02:39:36.814Z,101603.75
2022-10-17T02:42:40.369Z,101605.22
2022-10-17T02:45:42.885Z,101599.63
2022-10-17T02:48:50.079Z,101595.75
2022-10-17T02:52:02.784Z,101595.47
2022-10-17T02:55:11.663Z,101600.84
2022-10-17T02:58:20.072Z,101593.84
2022-10-17T03:01:22.926Z,101585.56
2022-10-17T03:04:25.463Z,101583.56
2022-10-17T03:07:29.304Z,101588.00
2022-10-17T03:10:31.762Z,101575.53
2022-10-17T03:13:36.342Z,101577.06
2022-10-17T03:16:42.129Z,101578.88
2022-10-17T03:19:44.613Z,101569.91
2022-10-17T03:22:48.422Z,101571.06
2022-10-17T03:25:50.910Z,101573.97
2022-10-17T03:28:54.509Z,101570.06
2022-10-17T03:31:57.313Z,101568.75
2022-10-17T03:34:59.793Z,101555.97
2022-10-17T03:38:03.615Z,101562.16
2022-10-17T03:41:06.676Z,101562.09
2022-10-17T03:44:09.193Z,101559.91
2022-10-17T03:47:14.120Z,101562.16
2022-10-17T03:50:16.926Z,101562.63
2022-10-17T03:53:20.764Z,101564.22
2022-10-17T03:56:24.886Z,101565.34
2022-10-17T03:59:27.373Z,101559.28
2022-10-17T04:02:29.897Z,101559.81
2022-10-17T04:05:32.411Z,101559.69
2022-10-17T04:08:36.505Z,101555.97
2022-10-17T04:11:39.231Z,101549.97
2022-10-17T04:14:41.703Z,101554.38
2022-10-17T04:17:44.187Z,101550.16
2022-10-17T04:20:46.660Z,101545.03
2022-10-17T04:23:54.401Z,101557.38
2022-10-17T04:26:56.914Z,101548.72
2022-10-17T04:29:59.395Z,101551.56
2022-10-17T04:33:01.891Z,101542.63
2022-10-17T04:36:07.206Z,101546.50
2022-10-17T04:39:11.075Z,101544.31
2022-10-17T04:42:13.650Z,101543.03
2022-10-17T04:45:16.180Z,101542.78
2022-10-17T04:48:18.693Z,101532.38
2022-10-17T04:51:23.271Z,101532.09
2022-10-17T04:54:29.729Z,101530.56
2022-10-17T04:57:35.778Z,101526.75
2022-10-17T05:00:38.307Z,101517.06
2022-10-17T05:03:40.931Z,101517.69
2022-10-17T05:06:43.413Z,101520.88
2022-10-17T05:09:47.264Z,101514.66
2022-10-17T05:12:49.858Z,101511.94
2022-10-17T05:15:52.365Z,101527.41
2022-10-17T05:18:56.395Z,101528.44
2022-10-17T05:21:58.913Z,101524.94
2022-10-17T05:25:02.873Z,101519.78
2022-10-17T05:28:05.470Z,101518.00
2022-10-17T05:31:09.309Z,101528.06
2022-10-17T05:34:13.909Z,101523.56
2022-10-17T05:37:16.614Z,101522.59
2022-10-17T05:40:21.369Z,101530.03
2022-10-17T05:43:23.842Z,101522.91
2022-10-17T05:46:26.456Z,101529.41
2022-10-17T05:49:40.006Z,101529.19
2022-10-17T05:52:47.405Z,101526.84
2022-10-17T05:55:58.015Z,101522.31
2022-10-17T05:59:01.188Z,101515.25
2022-10-17T06:02:03.909Z,101523.75
2022-10-17T06:05:06.987Z,101524.44
2022-10-17T06:08:09.582Z,101524.16
2022-10-17T06:11:14.326Z,101526.25
2022-10-17T06:14:16.817Z,101529.91
2022-10-17T06:17:19.330Z,101528.16
2022-10-17T06:20:21.839Z,101527.38
2022-10-17T06:23:24.321Z,101534.09
2022-10-17T06:26:28.135Z,101521.66
2022-10-17T06:29:30.702Z,101528.72
2022-10-17T06:32:33.205Z,101531.94
2022-10-17T06:35:35.737Z,101526.34
2022-10-17T06:38:38.507Z,101537.59
2022-10-17T06:41:44.423Z,101533.00
2022-10-17T06:44:46.920Z,101537.47
2022-10-17T06:47:49.859Z,101527.75
2022-10-17T06:50:52.340Z,101528.47
2022-10-17T06:53:54.825Z,101527.31
2022-10-17T06:56:58.703Z,101527.91
2022-10-17T07:00:01.195Z,101530.44
2022-10-17T07:03:03.694Z,101521.50
2022-10-17T07:06:06.525Z,101516.06
2022-10-17T07:09:09.534Z,101514.56
2022-10-17T07:12:13.435Z,101527.09
2022-10-17T07:15:16.115Z,101536.88
2022-10-17T07:18:18.613Z,101537.81
2022-10-17T07:21:21.917Z,101531.75
2022-10-17T07:24:24.460Z,101532.53
2022-10-17T07:27:28.803Z,101526.59
2022-10-17T07:30:31.473Z,101524.53
2022-10-17T07:33:34.177Z,101522.25
2022-10-17T07:36:36.765Z,101545.66
2022-10-17T07:39:39.984Z,101556.56
2022-10-17T07:42:43.794Z,101553.31
2022-10-17T07:45:46.321Z,101530.44
2022-10-17T07:48:48.789Z,101535.38
2022-10-17T07:51:51.305Z,101549.56
2022-10-17T07:54:53.773Z,101537.47
2022-10-17T07:57:58.035Z,101546.94
2022-10-17T08:04:09.535Z,101546.84
2022-10-17T08:07:20.927Z,101554.41
2022-10-17T08:10:27.712Z,101547.78
2022-10-17T08:13:31.555Z,101542.94
2022-10-17T08:16:34.037Z,101544.66
2022-10-17T08:19:39.481Z,101540.84
2022-10-17T08:22:42.117Z,101529.53
2022-10-17T08:25:44.616Z,101541.25
2022-10-17T08:28:48.831Z,101541.88
2022-10-17T08:31:54.187Z,101536.06
2022-10-17T08:35:01.163Z,101523.34
2022-10-17T08:38:03.792Z,101529.31
2022-10-17T08:41:15.353Z,101517.19
2022-10-17T08:44:28.796Z,101523.25
2022-10-17T08:47:39.329Z,101516.69
2022-10-17T08:50:46.701Z,101511.72
2022-10-17T08:53:53.777Z,101515.34
2022-10-17T08:56:56.491Z,101511.53
2022-10-17T09:00:00.333Z,101508.84
2022-10-17T09:03:20.571Z,101505.75
2022-10-17T09:06:29.890Z,101509.53
2022-10-17T09:09:41.235Z,101503.53
2022-10-17T09:12:52.984Z,101518.53
2022-10-17T09:16:10.232Z,101507.28
2022-10-17T09:19:18.257Z,101513.59
2022-10-17T09:22:24.548Z,101515.06
2022-10-17T09:25:28.455Z,101522.59
2022-10-17T09:28:34.204Z,101517.78
2022-10-17T09:31:44.969Z,101522.63
2022-10-17T09:34:47.585Z,101536.22
2022-10-17T09:37:50.956Z,101535.25
2022-10-17T09:40:57.559Z,101535.97
2022-10-17T09:44:09.822Z,101531.88
2022-10-17T09:47:23.528Z,101533.28
2022-10-17T09:50:29.476Z,101538.06
2022-10-17T09:53:35.946Z,101537.72
2022-10-17T09:56:59.782Z,101536.59
2022-10-17T10:00:05.168Z,101531.34
2022-10-17T10:03:16.794Z,101524.97
2022-10-17T10:06:21.739Z,101526.69
2022-10-17T10:09:28.553Z,101529.66
2022-10-17T10:12:33.607Z,101539.34
2022-10-17T10:15:38.924Z,101537.78
2022-10-17T10:18:43.903Z,101548.72
2022-10-17T10:21:56.981Z,101548.09
2022-10-17T10:25:12.340Z,101544.97
2022-10-17T10:28:18.124Z,101546.22
2022-10-17T10:31:29.046Z,101543.78
2022-10-17T10:34:35.682Z,101547.22
2022-10-17T10:37:43.393Z,101545.06
2022-10-17T10:40:47.995Z,101536.81
2022-10-17T10:43:52.977Z,101543.56
2022-10-17T10:47:18.679Z,101546.91
2022-10-17T10:50:30.261Z,101541.72
2022-10-17T10:53:44.841Z,101541.66
2022-10-17T10:56:52.647Z,101543.47
2022-10-17T11:00:03.372Z,101542.44
2022-10-17T11:03:13.513Z,101543.41
2022-10-17T11:06:23.439Z,101538.38
2022-10-17T11:09:34.061Z,101550.03
2022-10-17T11:12:40.278Z,101556.47
2022-10-17T11:15:47.718Z,101554.09
2022-10-17T11:18:54.242Z,101560.66
2022-10-17T11:22:09.086Z,101556.44
2022-10-17T11:25:23.076Z,101551.06
2022-10-17T11:28:26.551Z,101553.88
2022-10-17T11:31:33.458Z,101569.41
2022-10-17T11:34:41.752Z,101569.53
2022-10-17T11:37:50.658Z,101565.97
2022-10-17T11:40:57.043Z,101570.50
2022-10-17T11:44:04.981Z,101564.00
2022-10-17T11:47:18.959Z,101567.06
2022-10-17T11:53:56.895Z,101547.84
2022-10-17T11:57:25.164Z,101542.88
2022-10-17T12:00:41.724Z,101532.13
2022-10-17T12:04:12.486Z,101536.88
2022-10-17T12:07:20.882Z,101541.06
2022-10-17T12:10:44.666Z,101537.19
2022-10-17T12:13:53.020Z,101538.91
2022-10-17T12:16:55.569Z,101544.59
2022-10-17T12:20:30.445Z,101559.25
2022-10-17T12:23:36.278Z,101550.88
2022-10-17T12:26:40.134Z,101566.06
2022-10-17T12:29:42.659Z,101584.06
2022-10-17T12:33:06.597Z,101578.00
2022-10-17T12:36:49.365Z,101583.31
2022-10-17T12:39:54.529Z,101573.41
2022-10-17T12:42:58.360Z,101575.41
2022-10-17T12:46:01.897Z,101568.94
2022-10-17T12:49:20.540Z,101578.84
2022-10-17T12:52:25.684Z,101583.25
2022-10-17T12:55:28.573Z,101587.28
2022-10-17T12:58:32.619Z,101590.72
2022-10-17T13:01:39.313Z,101603.81
2022-10-17T13:04:41.901Z,101608.00
2022-10-17T13:07:49.408Z,101605.50
2022-10-17T13:10:53.671Z,101611.31
2022-10-17T13:14:00.219Z,101616.19
2022-10-17T13:17:05.799Z,101628.81
2022-10-17T13:20:25.643Z,101651.00
2022-10-17T13:23:34.549Z,101670.34
2022-10-17T13:26:37.037Z,101691.84
2022-10-17T13:29:45.340Z,101616.19
2022-10-17T13:32:47.827Z,101620.56
2022-10-17T13:36:05.669Z,101627.41
2022-10-17T13:39:13.649Z,101624.25
2022-10-17T13:42:23.872Z,101647.50
2022-10-17T13:45:31.314Z,101652.38
2022-10-17T13:48:37.558Z,101644.69
2022-10-17T13:51:44.792Z,101658.41
2022-10-17T13:54:50.590Z,101682.28
2022-10-17T13:57:53.294Z,101730.25
2022-10-17T14:00:57.824Z,101703.16
2022-10-17T14:04:08.848Z,101668.88
2022-10-17T14:07:25.870Z,101671.56
2022-10-17T14:10:34.244Z,101672.06
2022-10-17T14:13:36.844Z,101682.81
2022-10-17T14:16:43.707Z,101663.78
2022-10-17T14:19:55.468Z,101656.34
2022-10-17T14:23:30.697Z,101638.31
2022-10-17T14:26:37.128Z,101636.91
2022-10-17T14:29:52.665Z,101639.13
2022-10-17T14:32:58.860Z,101628.78
2022-10-17T14:36:03.545Z,101633.41
2022-10-17T14:39:13.341Z,101640.88
2022-10-17T14:42:20.760Z,101638.50
2022-10-17T14:45:26.758Z,101644.06
2022-10-17T14:48:31.994Z,101655.66
2022-10-17T14:51:50.186Z,101678.69
2022-10-17T14:54:59.295Z,101702.53
2022-10-17T14:58:02.608Z,101701.78
2022-10-17T15:01:05.156Z,101697.63
2022-10-17T15:04:10.690Z,101695.72
2022-10-17T15:07:17.420Z,101708.09
2022-10-17T15:10:41.862Z,101717.38
2022-10-17T15:13:45.756Z,101726.03
2022-10-17T15:16:48.348Z,101725.88
2022-10-17T15:19:52.294Z,101735.03
2022-10-17T15:22:54.837Z,101736.75
2022-10-17T15:25:57.319Z,101741.38
2022-10-17T15:29:00.441Z,101735.66
2022-10-17T15:32:02.998Z,101754.44
2022-10-17T15:35:07.849Z,101752.56
2022-10-17T15:38:12.614Z,101756.69
2022-10-17T15:41:15.310Z,101764.06
2022-10-17T15:44:17.925Z,101755.06
2022-10-17T15:47:25.672Z,101762.16
2022-10-17T15:50:30.521Z,101761.19
2022-10-17T15:53:32.991Z,101775.81
2022-10-17T15:56:38.144Z,101778.00
2022-10-17T15:59:40.647Z,101779.56
2022-10-17T16:02:43.342Z,101771.75
2022-10-17T16:05:47.276Z,101781.13
2022-10-17T16:08:51.006Z,101777.75
2022-10-17T16:11:53.511Z,101783.53
2022-10-17T16:14:56.622Z,101785.88
2022-10-17T16:18:01.671Z,101786.66
2022-10-17T16:21:10.889Z,101794.38
2022-10-17T16:24:13.818Z,101790.81
2022-10-17T16:27:16.354Z,101790.38
2022-10-17T16:30:20.102Z,101800.88
2022-10-17T16:33:22.606Z,101799.31
2022-10-17T16:36:26.798Z,101799.97
2022-10-17T16:39:29.279Z,101802.75
2022-10-17T16:42:31.969Z,101804.34
2022-10-17T16:45:34.771Z,101805.31
2022-10-17T16:48:37.313Z,101807.19
2022-10-17T16:51:41.174Z,101808.34
2022-10-17T16:54:43.713Z,101812.41
2022-10-17T16:57:48.832Z,101812.13
2022-10-17T17:00:51.884Z,101811.34
2022-10-17T17:03:55.015Z,101817.63
2022-10-17T17:06:58.851Z,101823.63
2022-10-17T17:10:01.325Z,101827.66
2022-10-17T17:13:04.434Z,101822.97
2022-10-17T17:16:08.540Z,101830.09
2022-10-17T17:19:13.357Z,101843.50
2022-10-17T17:22:17.258Z,101841.94
2022-10-17T17:25:19.953Z,101847.00
2022-10-17T17:28:22.503Z,101850.47
2022-10-17T17:31:27.159Z,101848.81
2022-10-17T17:34:29.645Z,101846.88
2022-10-17T17:37:33.634Z,101850.78
2022-10-17T17:40:36.148Z,101848.19
2022-10-17T17:43:38.630Z,101847.50
2022-10-17T17:46:43.399Z,101852.56
2022-10-17T17:49:45.969Z,101850.59
2022-10-17T17:52:51.062Z,101858.53
2022-10-17T17:56:02.348Z,101856.66
2022-10-17T17:59:05.233Z,101865.19
2022-10-17T18:02:08.786Z,101867.72
2022-10-17T18:05:11.370Z,101869.38
2022-10-17T18:08:15.214Z,101873.72
2022-10-17T18:11:21.173Z,101864.16
2022-10-17T18:14:25.491Z,101862.97
2022-10-17T18:17:28.174Z,101863.59
2022-10-17T18:20:30.823Z,101865.41
2022-10-17T18:23:37.567Z,101867.41
2022-10-17T18:26:40.068Z,101861.22
2022-10-17T18:29:42.634Z,101877.94
2022-10-17T18:32:45.110Z,101872.44
2022-10-17T18:35:47.607Z,101880.00
2022-10-17T18:38:51.434Z,101887.28
2022-10-17T18:41:53.916Z,101888.53
2022-10-17T18:44:56.731Z,101878.34
2022-10-17T18:47:59.262Z,101884.91
2022-10-17T18:51:02.205Z,101891.38
2022-10-17T18:54:06.255Z,101892.19
2022-10-17T18:57:08.781Z,101897.38
2022-10-17T19:00:12.392Z,101896.50
2022-10-17T19:03:15.031Z,101896.69
2022-10-17T19:06:19.795Z,101911.41
2022-10-17T19:09:23.605Z,101913.88
2022-10-17T19:12:26.208Z,101909.81
2022-10-17T19:15:28.677Z,101904.78
2022-10-17T19:18:31.168Z,101911.72
2022-10-17T19:21:33.847Z,101917.09
2022-10-17T19:24:38.113Z,101918.28
2022-10-17T19:27:40.604Z,101908.97
2022-10-17T19:30:43.655Z,101914.25
2022-10-17T19:33:46.227Z,101917.09
2022-10-17T19:36:48.702Z,101918.13
2022-10-17T19:39:52.541Z,101898.63
2022-10-17T19:42:55.180Z,101918.38
2022-10-17T19:45:58.596Z,101926.09
2022-10-17T19:49:02.125Z,101926.25
2022-10-17T19:52:04.834Z,101927.97
2022-10-17T19:55:09.338Z,101932.34
2022-10-17T19:58:12.594Z,101941.34
2022-10-17T20:01:17.356Z,101934.94
2022-10-17T20:04:20.041Z,101938.72
2022-10-17T20:07:22.533Z,101944.25
2022-10-17T20:10:26.476Z,101954.97
2022-10-17T20:13:28.939Z,101952.13
2022-10-17T20:16:35.317Z,101972.66
2022-10-17T20:19:37.793Z,101974.84
2022-10-17T20:22:40.282Z,101982.44
2022-10-17T20:25:44.227Z,101971.84
2022-10-17T20:28:47.541Z,101991.75
2022-10-17T20:31:50.704Z,101991.97
2022-10-17T20:34:53.306Z,102000.31
2022-10-17T20:37:56.171Z,102008.28
2022-10-17T20:41:03.122Z,102016.88
2022-10-17T20:44:06.985Z,102022.31
2022-10-17T20:47:16.259Z,102020.72
2022-10-17T20:50:18.944Z,102027.69
2022-10-17T20:53:36.646Z,102031.84
2022-10-17T20:56:41.342Z,102040.63
2022-10-17T20:59:45.494Z,102035.31
2022-10-17T21:02:48.033Z,102048.78
2022-10-17T21:05:50.684Z,102050.59
2022-10-17T21:08:54.038Z,102050.47
2022-10-17T21:11:58.089Z,102062.63
2022-10-17T21:15:01.037Z,102062.63
2022-10-17T21:18:03.654Z,102066.19
2022-10-17T21:21:11.844Z,102062.50
2022-10-17T21:24:18.021Z,102064.66
2022-10-17T21:27:22.113Z,102059.28
2022-10-17T21:30:24.586Z,102059.09
2022-10-17T21:33:29.862Z,102068.75
2022-10-17T21:36:32.663Z,102064.19
2022-10-17T21:39:35.320Z,102067.66
2022-10-17T21:42:39.323Z,102068.50
2022-10-17T21:45:41.946Z,102070.09
2022-10-17T21:48:45.478Z,102075.78
2022-10-17T21:51:49.064Z,102069.16
2022-10-17T21:54:51.829Z,102068.44
2022-10-17T21:57:55.778Z,102079.06
2022-10-17T22:01:04.916Z,102074.91
2022-10-17T22:04:09.147Z,102074.00
2022-10-17T22:07:11.634Z,102068.34
2022-10-17T22:10:14.133Z,102063.00
2022-10-17T22:13:17.941Z,102068.50
2022-10-17T22:16:20.522Z,102073.38
2022-10-17T22:19:26.719Z,102080.06
2022-10-17T22:22:29.278Z,102070.56
2022-10-17T22:25:31.870Z,102082.94
2022-10-17T22:28:36.489Z,102075.97
2022-10-17T22:31:39.522Z,102084.28
2022-10-17T22:34:42.042Z,102082.00
2022-10-17T22:37:44.528Z,102079.63
2022-10-17T22:40:47.907Z,102079.63
2022-10-17T22:43:51.731Z,102076.28
2022-10-17T22:46:54.228Z,102074.16
2022-10-17T22:49:57.094Z,102076.16
2022-10-17T22:52:59.765Z,102084.47
2022-10-17T22:56:04.199Z,102088.19
2022-10-17T22:59:08.041Z,102083.53
2022-10-17T23:02:10.517Z,102081.41
2022-10-17T23:05:13.025Z,102081.53
2022-10-17T23:08:17.765Z,102077.19
2022-10-17T23:11:20.692Z,102077.38
2022-10-17T23:14:24.551Z,102074.28
2022-10-17T23:17:27.034Z,102073.69
2022-10-17T23:20:30.381Z,102081.66
2022-10-17T23:23:32.905Z,102084.28
2022-10-17T23:26:35.397Z,102095.94
2022-10-17T23:29:39.263Z,102089.94
2022-10-17T23:32:42.379Z,102100.66
2022-10-17T23:35:44.858Z,102100.38
2022-10-17T23:38:48.424Z,102095.97
2022-10-17T23:41:50.927Z,102101.28
2022-10-17T23:44:54.824Z,102108.31
2022-10-17T23:47:57.302Z,102107.44
2022-10-17T23:50:59.781Z,102103.06
2022-10-17T23:54:02.262Z,102110.31
2022-10-17T23:57:04.830Z,102114.59
